Time;durP1;ratioP1;P1;durP2;ratioP2;P2;SDS_P1;SDS_P2;PMS_P1;PMS_P2;Temp;Humidity;BMP_temperature;BMP_pressure;BME280_temperature;BME280_humidity;BME280_pressure;Samples;Min_cycle;Max_cycle;Signal;HPM_P1;HPM_P2
2021/10/02 00:48:19;;;;;;;8.15;4.68;;;;;;;;;;21151506;28;20051;-60
2021/10/02 00:58:21;;;;;;;6.07;4.18;;;;;;;;;;21163830;28;20112;-60
2021/10/02 01:08:23;;;;;;;5.63;3.95;;;;;;;;;;21166668;28;20118;-68
2021/10/02 01:18:44;;;;;;;6.07;3.90;;;;;;;;;;21182074;28;20078;-67
2021/10/02 01:28:54;;;;;;;7.50;4.18;;;;;;;;;;21177506;28;20051;-68
2021/10/02 01:49:27;;;;;;;5.97;4.15;;;;;;;;;;21175233;28;20130;-65
2021/10/02 01:59:33;;;;;;;8.95;4.13;;;;;;;;;;21174502;28;20097;-69
2021/10/02 02:09:37;;;;;;;7.43;4.70;;;;;;;;;;21173376;28;20046;-58
2021/10/02 02:19:45;;;;;;;11.40;4.40;;;;;;;;;;21171961;28;20056;-63
2021/10/02 02:29:50;;;;;;;7.70;4.38;;;;;;;;;;21172974;28;20043;-62
2021/10/02 02:39:53;;;;;;;;;;;;;;;;;;21171471;28;20056;-59
2021/10/02 02:50:06;;;;;;;8.88;6.13;;;;;;;;;;21171110;28;20010;-57
2021/10/02 03:00:10;;;;;;;6.10;4.72;;;;;;;;;;21168965;28;20047;-58
2021/10/02 03:10:13;;;;;;;7.05;4.50;;;;;;;;;;21168605;28;20078;-61
2021/10/02 03:20:19;;;;;;;6.75;4.45;;;;;;;;;;21167801;28;20058;-66
2021/10/02 03:30:21;;;;;;;4.63;3.90;;;;;;;;;;21167386;28;20071;-67
2021/10/02 03:40:26;;;;;;;6.25;3.83;;;;;;;;;;21166839;28;20132;-59
2021/10/02 03:50:29;;;;;;;5.63;4.60;;;;;;;;;;21165508;28;20399;-67
2021/10/02 04:00:32;;;;;;;7.20;4.45;;;;;;;;;;21147151;28;20492;-63
2021/10/02 04:10:35;;;;;;;6.22;3.55;;;;;;;;;;21165558;28;20404;-63
2021/10/02 04:20:39;;;;;;;6.43;4.20;;;;;;;;;;21163387;28;20047;-68
2021/10/02 04:30:41;;;;;;;7.07;3.72;;;;;;;;;;21163658;28;20404;-64
2021/10/02 04:40:44;;;;;;;6.97;4.38;;;;;;;;;;21162088;28;20059;-61
2021/10/02 04:51:06;;;;;;;7.22;4.25;;;;;;;;;;21179086;28;20080;-58
2021/10/02 05:01:11;;;;;;;10.27;4.95;;;;;;;;;;21179396;28;20507;-62
2021/10/02 05:11:13;;;;;;;6.90;4.65;;;;;;;;;;21178723;28;20043;-68
2021/10/02 05:21:15;;;;;;;7.95;4.53;;;;;;;;;;21178055;28;20085;-68
2021/10/02 05:31:17;;;;;;;6.70;4.90;;;;;;;;;;21177668;28;20046;-66
2021/10/02 05:41:19;;;;;;;6.00;4.25;;;;;;;;;;21175921;28;20054;-68
2021/10/02 05:51:24;;;;;;;6.97;4.70;;;;;;;;;;21191923;28;20080;-67
2021/10/02 06:01:26;;;;;;;7.85;5.00;;;;;;;;;;21158398;28;20453;-64
2021/10/02 06:11:27;;;;;;;6.07;4.60;;;;;;;;;;21174344;28;20075;-58
2021/10/02 06:21:29;;;;;;;7.75;4.53;;;;;;;;;;21154487;28;20087;-59
2021/10/02 06:31:31;;;;;;;6.05;4.70;;;;;;;;;;21172250;28;20048;-62
2021/10/02 06:41:33;;;;;;;5.75;3.97;;;;;;;;;;21171380;28;20058;-64
2021/10/02 06:51:34;;;;;;;8.60;5.43;;;;;;;;;;21170521;28;20073;-57
2021/10/02 07:01:36;;;;;;;7.90;4.68;;;;;;;;;;21169591;28;20056;-60
2021/10/02 07:11:38;;;;;;;8.85;5.00;;;;;;;;;;21168438;28;20540;-66
2021/10/02 07:21:40;;;;;;;7.45;5.47;;;;;;;;;;21149377;28;20043;-59
2021/10/02 07:31:44;;;;;;;8.50;5.38;;;;;;;;;;21166700;28;20051;-63
2021/10/02 07:41:48;;;;;;;7.65;5.22;;;;;;;;;;21165609;28;20508;-70
2021/10/02 07:51:51;;;;;;;9.35;5.72;;;;;;;;;;21165553;28;20074;-61
2021/10/02 08:01:56;;;;;;;11.32;7.80;;;;;;;;;;21164363;28;20052;-59
2021/10/02 08:11:58;;;;;;;14.02;9.63;;;;;;;;;;21172437;28;20043;-59
2021/10/02 08:22:00;;;;;;;16.70;10.27;;;;;;;;;;21169771;28;20047;-58
2021/10/02 08:32:02;;;;;;;15.93;10.80;;;;;;;;;;21163377;28;20039;-62
2021/10/02 08:42:05;;;;;;;15.83;11.33;;;;;;;;;;21163398;28;20454;-69
2021/10/02 08:52:09;;;;;;;17.38;12.40;;;;;;;;;;21164463;28;20157;-69
2021/10/02 09:02:12;;;;;;;16.83;11.88;;;;;;;;;;21163232;28;20105;-69
2021/10/02 09:12:20;;;;;;;16.65;10.57;;;;;;;;;;21200076;28;20101;-76
2021/10/02 09:22:22;;;;;;;18.63;11.75;;;;;;;;;;21167063;28;20077;-77
2021/10/02 09:32:29;;;;;;;16.20;10.52;;;;;;;;;;21154733;28;20043;-69
2021/10/02 09:42:34;;;;;;;17.20;10.95;;;;;;;;;;21201389;28;20139;-73
2021/10/02 09:52:38;;;;;;;19.90;12.05;;;;;;;;;;21180621;28;20399;-76
2021/10/02 10:02:41;;;;;;;25.33;14.07;;;;;;;;;;21178357;28;20086;-59
2021/10/02 10:12:45;;;;;;;22.77;12.15;;;;;;;;;;21177517;28;20058;-76
2021/10/02 10:22:56;;;;;;;30.65;18.42;;;;;;;;;;21182573;28;20044;-74
2021/10/02 10:33:06;;;;;;;30.17;16.95;;;;;;;;;;21188260;28;20407;-62
2021/10/02 10:43:10;;;;;;;24.75;16.48;;;;;;;;;;21177731;28;20055;-65
2021/10/02 10:53:13;;;;;;;24.80;14.70;;;;;;;;;;21174999;28;20058;-76
2021/10/02 11:03:33;;;;;;;21.38;13.25;;;;;;;;;;21170865;28;20051;-72
2021/10/02 11:13:36;;;;;;;17.80;10.18;;;;;;;;;;21170233;28;20406;-59
2021/10/02 11:23:57;;;;;;;18.50;10.90;;;;;;;;;;21169695;28;20052;-60
2021/10/02 11:34:00;;;;;;;17.77;11.65;;;;;;;;;;21151969;28;20044;-75
2021/10/02 11:44:04;;;;;;;16.38;10.80;;;;;;;;;;21156519;28;20044;-76
2021/10/02 11:54:08;;;;;;;16.03;10.80;;;;;;;;;;21186117;28;20044;-75
2021/10/02 12:04:14;;;;;;;10.77;8.82;;;;;;;;;;21156380;28;20056;-61
2021/10/02 12:14:17;;;;;;;9.77;4.53;;;;;;;;;;21082621;28;20112;-61
2021/10/02 12:24:24;;;;;;;7.32;4.88;;;;;;;;;;21079956;28;20048;-61
2021/10/02 12:34:29;;;;;;;10.93;6.22;;;;;;;;;;21079702;28;20062;-69
2021/10/02 12:44:33;;;;;;;6.97;4.32;;;;;;;;;;21091810;28;20048;-61
2021/10/02 12:54:36;;;;;;;7.47;4.32;;;;;;;;;;21078469;28;20044;-74
2021/10/02 13:04:38;;;;;;;5.47;3.70;;;;;;;;;;21081106;28;20458;-61
2021/10/02 13:14:46;;;;;;;6.72;4.05;;;;;;;;;;21094839;28;20161;-61
2021/10/02 13:25:04;;;;;;;6.45;3.72;;;;;;;;;;21092944;28;20469;-74
2021/10/02 13:35:10;;;;;;;5.30;3.40;;;;;;;;;;21097334;28;20428;-61
2021/10/02 13:45:13;;;;;;;6.53;5.22;;;;;;;;;;21096910;28;20126;-64
2021/10/02 13:55:15;;;;;;;6.28;3.38;;;;;;;;;;21093759;28;20044;-73
2021/10/02 14:05:18;;;;;;;5.13;2.97;;;;;;;;;;21089451;28;20117;-61
2021/10/02 14:15:20;;;;;;;4.20;3.45;;;;;;;;;;21088728;28;20415;-63
2021/10/02 14:25:22;;;;;;;6.00;2.83;;;;;;;;;;21088164;28;20055;-62
2021/10/02 14:35:24;;;;;;;3.97;2.20;;;;;;;;;;21087170;28;20123;-60
2021/10/02 14:45:26;;;;;;;;;;;;;;;;;;21086444;28;20048;-71
2021/10/02 14:55:29;;;;;;;5.88;2.80;;;;;;;;;;21085246;28;19926;-64
2021/10/02 15:05:31;;;;;;;3.20;2.33;;;;;;;;;;21084501;28;20060;-69
2021/10/02 15:15:33;;;;;;;3.58;2.05;;;;;;;;;;21083622;28;20048;-62
2021/10/02 15:25:36;;;;;;;;;;;;;;;;;;21082592;28;20130;-61
2021/10/02 15:35:38;;;;;;;;;;;;;;;;;;21082535;28;20324;-61
2021/10/02 15:45:46;;;;;;;4.10;2.70;;;;;;;;;;21081443;28;19926;-60
2021/10/02 15:55:53;;;;;;;4.05;2.58;;;;;;;;;;21081663;28;20047;-61
2021/10/02 16:05:55;;;;;;;6.38;3.00;;;;;;;;;;21081389;28;20071;-73
2021/10/02 16:15:57;;;;;;;4.80;3.15;;;;;;;;;;21079648;28;20044;-71
2021/10/02 16:25:59;;;;;;;10.83;2.97;;;;;;;;;;21079465;28;20048;-65
2021/10/02 16:36:03;;;;;;;5.80;3.00;;;;;;;;;;21078785;28;20051;-60
2021/10/02 16:46:04;;;;;;;3.50;2.72;;;;;;;;;;21077223;28;20475;-61
2021/10/02 16:56:07;;;;;;;3.73;3.33;;;;;;;;;;21078187;28;20044;-59
2021/10/02 17:06:09;;;;;;;5.57;3.15;;;;;;;;;;21078221;28;20109;-63
2021/10/02 17:16:11;;;;;;;4.23;3.07;;;;;;;;;;21076951;28;20089;-66
2021/10/02 17:26:13;;;;;;;;;;;;;;;;;;21077159;28;20131;-61
2021/10/02 17:36:14;;;;;;;5.22;3.55;;;;;;;;;;21077632;28;19959;-60
2021/10/02 17:46:15;;;;;;;4.10;3.13;;;;;;;;;;21076142;28;20055;-59
2021/10/02 17:56:18;;;;;;;6.10;3.20;;;;;;;;;;21070551;28;20048;-58
2021/10/02 18:06:19;;;;;;;7.72;3.40;;;;;;;;;;21089875;28;20064;-58
2021/10/02 18:16:21;;;;;;;9.07;6.55;;;;;;;;;;21089392;28;20092;-61
2021/10/02 18:26:30;;;;;;;7.22;4.47;;;;;;;;;;21088172;28;20048;-60
2021/10/02 18:36:32;;;;;;;4.80;3.85;;;;;;;;;;21087670;28;20048;-71
2021/10/02 18:46:34;;;;;;;5.32;4.60;;;;;;;;;;21087514;28;20055;-59
2021/10/02 18:56:35;;;;;;;7.47;4.30;;;;;;;;;;21085844;28;20047;-57
2021/10/02 19:06:39;;;;;;;5.13;3.92;;;;;;;;;;21085933;28;20063;-60
2021/10/02 19:16:41;;;;;;;7.70;4.75;;;;;;;;;;21084020;28;20499;-60
2021/10/02 19:26:44;;;;;;;7.50;4.22;;;;;;;;;;21082760;28;20059;-59
2021/10/02 19:36:46;;;;;;;6.23;4.03;;;;;;;;;;21081854;28;20092;-60
2021/10/02 19:46:48;;;;;;;16.55;11.52;;;;;;;;;;21079280;28;20056;-63
2021/10/02 19:56:50;;;;;;;9.23;6.88;;;;;;;;;;21081520;28;20040;-60
2021/10/02 20:06:52;;;;;;;18.60;14.13;;;;;;;;;;21080795;28;20101;-62
2021/10/02 20:16:55;;;;;;;18.15;13.88;;;;;;;;;;21078942;28;20040;-59
2021/10/02 20:26:56;;;;;;;8.57;5.63;;;;;;;;;;21078075;28;20404;-63
2021/10/02 20:37:00;;;;;;;9.57;5.40;;;;;;;;;;21078192;28;20048;-64
2021/10/02 20:47:02;;;;;;;7.33;3.60;;;;;;;;;;21078178;28;20126;-60
2021/10/02 20:57:05;;;;;;;5.03;4.33;;;;;;;;;;21079048;28;20056;-60
2021/10/02 21:07:08;;;;;;;5.90;4.43;;;;;;;;;;21082580;28;20087;-61
2021/10/02 21:17:10;;;;;;;5.90;4.80;;;;;;;;;;21078167;28;20513;-61
2021/10/02 21:27:13;;;;;;;;;;;;;;;;;;21084532;28;20052;-65
2021/10/02 21:37:16;;;;;;;6.88;4.32;;;;;;;;;;21092546;28;19924;-74
2021/10/02 21:47:19;;;;;;;16.92;13.02;;;;;;;;;;21091448;28;20403;-72
2021/10/02 21:57:21;;;;;;;15.20;10.25;;;;;;;;;;21072888;28;20052;-72
2021/10/02 22:07:23;;;;;;;7.47;5.93;;;;;;;;;;21091133;28;20108;-73
2021/10/02 22:17:25;;;;;;;6.70;4.97;;;;;;;;;;21090186;28;20292;-65
2021/10/02 22:27:28;;;;;;;6.73;4.57;;;;;;;;;;21089088;28;20059;-70
2021/10/02 22:37:30;;;;;;;9.02;4.35;;;;;;;;;;21086558;28;20058;-71
2021/10/02 22:47:34;;;;;;;6.43;3.85;;;;;;;;;;21086330;28;20480;-60
2021/10/02 22:57:36;;;;;;;12.00;9.20;;;;;;;;;;21086007;28;20056;-70
2021/10/02 23:07:39;;;;;;;;;;;;;;;;;;21086040;28;20445;-62
2021/10/02 23:17:43;;;;;;;9.45;7.05;;;;;;;;;;21084714;28;19926;-74
2021/10/02 23:27:46;;;;;;;4.55;2.65;;;;;;;;;;21083991;28;20511;-61
2021/10/02 23:37:49;;;;;;;7.53;4.03;;;;;;;;;;21082848;28;20040;-66
2021/10/02 23:47:54;;;;;;;3.58;2.38;;;;;;;;;;21082120;28;20098;-68
2021/10/02 23:57:58;;;;;;;5.18;2.58;;;;;;;;;;21082003;28;20056;-70
